sensor_id;sensor_type;location;lat;lon;timestamp;temperature;humidity
17726;DHT22;8983;53.156;17.960;2023-04-03T00:00:50;2.30;99.90
17726;DHT22;8983;53.156;17.960;2023-04-03T00:03:18;2.30;99.90
17726;DHT22;8983;53.156;17.960;2023-04-03T00:05:47;2.30;99.90
17726;DHT22;8983;53.156;17.960;2023-04-03T00:08:16;2.30;99.90
17726;DHT22;8983;53.156;17.960;2023-04-03T00:10:44;2.30;99.90
17726;DHT22;8983;53.156;17.960;2023-04-03T00:13:13;2.30;99.90
17726;DHT22;8983;53.156;17.960;2023-04-03T00:15:41;2.20;99.90
17726;DHT22;8983;53.156;17.960;2023-04-03T00:18:10;2.20;99.90
17726;DHT22;8983;53.156;17.960;2023-04-03T00:20:38;2.20;99.90
17726;DHT22;8983;53.156;17.960;2023-04-03T00:23:06;2.20;99.90
17726;DHT22;8983;53.156;17.960;2023-04-03T00:25:35;2.20;99.90
17726;DHT22;8983;53.156;17.960;2023-04-03T00:28:04;2.10;99.90
17726;DHT22;8983;53.156;17.960;2023-04-03T00:30:33;2.10;99.90
17726;DHT22;8983;53.156;17.960;2023-04-03T00:33:01;2.10;99.90
17726;DHT22;8983;53.156;17.960;2023-04-03T00:35:30;2.10;99.90
17726;DHT22;8983;53.156;17.960;2023-04-03T00:37:58;2.10;99.90
17726;DHT22;8983;53.156;17.960;2023-04-03T00:40:27;2.00;99.90
17726;DHT22;8983;53.156;17.960;2023-04-03T00:42:58;2.00;99.90
17726;DHT22;8983;53.156;17.960;2023-04-03T00:45:31;2.00;99.90
17726;DHT22;8983;53.156;17.960;2023-04-03T00:48:01;2.00;99.90
17726;DHT22;8983;53.156;17.960;2023-04-03T00:50:35;2.00;99.90
17726;DHT22;8983;53.156;17.960;2023-04-03T00:53:06;1.90;99.90
17726;DHT22;8983;53.156;17.960;2023-04-03T00:55:36;1.90;99.90
17726;DHT22;8983;53.156;17.960;2023-04-03T00:58:07;1.90;99.90
17726;DHT22;8983;53.156;17.960;2023-04-03T01:00:37;1.90;99.90
17726;DHT22;8983;53.156;17.960;2023-04-03T01:03:06;1.90;99.90
17726;DHT22;8983;53.156;17.960;2023-04-03T01:05:34;1.90;99.90
17726;DHT22;8983;53.156;17.960;2023-04-03T01:08:03;1.90;99.90
17726;DHT22;8983;53.156;17.960;2023-04-03T01:10:31;1.80;99.90
17726;DHT22;8983;53.156;17.960;2023-04-03T01:13:00;1.80;99.90
17726;DHT22;8983;53.156;17.960;2023-04-03T01:15:30;1.80;99.90
17726;DHT22;8983;53.156;17.960;2023-04-03T01:18:01;1.80;99.90
17726;DHT22;8983;53.156;17.960;2023-04-03T01:20:50;1.80;99.90
17726;DHT22;8983;53.156;17.960;2023-04-03T01:23:39;1.80;99.90
17726;DHT22;8983;53.156;17.960;2023-04-03T01:26:10;1.70;99.90
17726;DHT22;8983;53.156;17.960;2023-04-03T01:28:39;1.70;99.90
17726;DHT22;8983;53.156;17.960;2023-04-03T01:31:14;1.70;99.90
17726;DHT22;8983;53.156;17.960;2023-04-03T01:33:44;1.70;99.90
17726;DHT22;8983;53.156;17.960;2023-04-03T01:36:15;1.70;99.90
17726;DHT22;8983;53.156;17.960;2023-04-03T01:38:43;1.70;99.90
17726;DHT22;8983;53.156;17.960;2023-04-03T01:41:11;1.70;99.90
17726;DHT22;8983;53.156;17.960;2023-04-03T01:43:39;1.60;99.90
17726;DHT22;8983;53.156;17.960;2023-04-03T01:46:07;1.60;99.90
17726;DHT22;8983;53.156;17.960;2023-04-03T01:48:35;1.70;99.90
17726;DHT22;8983;53.156;17.960;2023-04-03T01:51:05;1.60;99.90
17726;DHT22;8983;53.156;17.960;2023-04-03T01:53:33;1.60;99.90
17726;DHT22;8983;53.156;17.960;2023-04-03T01:56:01;1.60;99.90
17726;DHT22;8983;53.156;17.960;2023-04-03T01:58:29;1.60;99.90
17726;DHT22;8983;53.156;17.960;2023-04-03T02:00:57;1.60;99.90
17726;DHT22;8983;53.156;17.960;2023-04-03T02:03:25;1.60;99.90
17726;DHT22;8983;53.156;17.960;2023-04-03T02:05:53;1.50;99.90
17726;DHT22;8983;53.156;17.960;2023-04-03T02:08:23;1.50;99.90
17726;DHT22;8983;53.156;17.960;2023-04-03T02:10:51;1.50;99.90
17726;DHT22;8983;53.156;17.960;2023-04-03T02:13:19;1.50;99.90
17726;DHT22;8983;53.156;17.960;2023-04-03T02:15:47;1.50;99.90
17726;DHT22;8983;53.156;17.960;2023-04-03T02:18:15;1.50;99.90
17726;DHT22;8983;53.156;17.960;2023-04-03T02:20:43;1.50;99.90
17726;DHT22;8983;53.156;17.960;2023-04-03T02:23:12;1.50;99.90
17726;DHT22;8983;53.156;17.960;2023-04-03T02:25:41;1.40;99.90
17726;DHT22;8983;53.156;17.960;2023-04-03T02:28:09;1.40;99.90
17726;DHT22;8983;53.156;17.960;2023-04-03T02:30:37;1.40;99.90
17726;DHT22;8983;53.156;17.960;2023-04-03T02:33:06;1.40;99.90
17726;DHT22;8983;53.156;17.960;2023-04-03T02:35:34;1.40;99.90
17726;DHT22;8983;53.156;17.960;2023-04-03T02:38:03;1.40;99.90
17726;DHT22;8983;53.156;17.960;2023-04-03T02:40:31;1.30;99.90
17726;DHT22;8983;53.156;17.960;2023-04-03T02:43:00;1.30;99.90
17726;DHT22;8983;53.156;17.960;2023-04-03T02:45:28;1.40;99.90
17726;DHT22;8983;53.156;17.960;2023-04-03T02:47:56;1.30;99.90
17726;DHT22;8983;53.156;17.960;2023-04-03T02:50:25;1.30;99.90
17726;DHT22;8983;53.156;17.960;2023-04-03T02:52:53;1.30;99.90
17726;DHT22;8983;53.156;17.960;2023-04-03T02:55:21;1.30;99.90
17726;DHT22;8983;53.156;17.960;2023-04-03T02:57:49;1.30;99.90
17726;DHT22;8983;53.156;17.960;2023-04-03T03:00:19;1.20;99.90
17726;DHT22;8983;53.156;17.960;2023-04-03T03:02:48;1.20;99.90
17726;DHT22;8983;53.156;17.960;2023-04-03T03:05:17;1.20;99.90
17726;DHT22;8983;53.156;17.960;2023-04-03T03:07:45;1.20;99.90
17726;DHT22;8983;53.156;17.960;2023-04-03T03:10:13;1.20;99.90
17726;DHT22;8983;53.156;17.960;2023-04-03T03:12:41;1.20;99.90
17726;DHT22;8983;53.156;17.960;2023-04-03T03:15:10;1.20;99.90
17726;DHT22;8983;53.156;17.960;2023-04-03T03:17:39;1.10;99.90
17726;DHT22;8983;53.156;17.960;2023-04-03T03:20:08;1.10;99.90
17726;DHT22;8983;53.156;17.960;2023-04-03T03:22:36;1.10;99.90
17726;DHT22;8983;53.156;17.960;2023-04-03T03:25:05;1.10;99.90
17726;DHT22;8983;53.156;17.960;2023-04-03T03:27:33;1.10;99.90
17726;DHT22;8983;53.156;17.960;2023-04-03T03:30:01;1.10;99.90
17726;DHT22;8983;53.156;17.960;2023-04-03T03:32:29;1.10;99.90
17726;DHT22;8983;53.156;17.960;2023-04-03T03:34:58;1.10;99.90
17726;DHT22;8983;53.156;17.960;2023-04-03T03:37:26;1.00;99.90
17726;DHT22;8983;53.156;17.960;2023-04-03T03:39:54;1.00;99.90
17726;DHT22;8983;53.156;17.960;2023-04-03T03:42:22;1.00;99.90
17726;DHT22;8983;53.156;17.960;2023-04-03T03:44:50;0.90;99.90
17726;DHT22;8983;53.156;17.960;2023-04-03T03:47:18;1.00;99.90
17726;DHT22;8983;53.156;17.960;2023-04-03T03:49:46;1.00;99.90
17726;DHT22;8983;53.156;17.960;2023-04-03T03:52:16;1.00;99.90
17726;DHT22;8983;53.156;17.960;2023-04-03T03:54:44;1.00;99.90
17726;DHT22;8983;53.156;17.960;2023-04-03T03:57:12;0.90;99.90
17726;DHT22;8983;53.156;17.960;2023-04-03T03:59:40;0.90;99.90
17726;DHT22;8983;53.156;17.960;2023-04-03T04:02:08;0.90;99.90
17726;DHT22;8983;53.156;17.960;2023-04-03T04:04:36;0.90;99.90
17726;DHT22;8983;53.156;17.960;2023-04-03T04:07:04;0.90;99.90
17726;DHT22;8983;53.156;17.960;2023-04-03T04:09:34;0.90;99.90
17726;DHT22;8983;53.156;17.960;2023-04-03T04:12:02;0.80;99.90
17726;DHT22;8983;53.156;17.960;2023-04-03T04:14:30;0.80;99.90
17726;DHT22;8983;53.156;17.960;2023-04-03T04:16:58;0.80;99.90
17726;DHT22;8983;53.156;17.960;2023-04-03T04:19:26;0.80;99.90
17726;DHT22;8983;53.156;17.960;2023-04-03T04:21:54;0.80;99.90
17726;DHT22;8983;53.156;17.960;2023-04-03T04:24:22;0.80;99.90
17726;DHT22;8983;53.156;17.960;2023-04-03T04:26:52;0.80;99.90
17726;DHT22;8983;53.156;17.960;2023-04-03T04:29:20;0.80;99.90
17726;DHT22;8983;53.156;17.960;2023-04-03T04:31:48;0.80;99.90
17726;DHT22;8983;53.156;17.960;2023-04-03T04:34:16;0.70;99.90
17726;DHT22;8983;53.156;17.960;2023-04-03T04:36:44;0.70;99.90
17726;DHT22;8983;53.156;17.960;2023-04-03T04:39:12;0.70;99.90
17726;DHT22;8983;53.156;17.960;2023-04-03T04:41:40;0.70;99.90
17726;DHT22;8983;53.156;17.960;2023-04-03T04:44:09;0.70;99.90
17726;DHT22;8983;53.156;17.960;2023-04-03T04:46:37;0.70;99.90
17726;DHT22;8983;53.156;17.960;2023-04-03T04:49:08;0.70;99.90
17726;DHT22;8983;53.156;17.960;2023-04-03T04:51:36;0.70;99.90
17726;DHT22;8983;53.156;17.960;2023-04-03T04:54:17;0.70;99.90
17726;DHT22;8983;53.156;17.960;2023-04-03T04:56:45;0.80;99.90
17726;DHT22;8983;53.156;17.960;2023-04-03T04:59:15;0.80;99.90
17726;DHT22;8983;53.156;17.960;2023-04-03T05:01:44;0.80;99.90
17726;DHT22;8983;53.156;17.960;2023-04-03T05:04:12;0.80;99.90
17726;DHT22;8983;53.156;17.960;2023-04-03T05:06:41;0.80;99.90
17726;DHT22;8983;53.156;17.960;2023-04-03T05:09:09;0.80;99.90
17726;DHT22;8983;53.156;17.960;2023-04-03T05:11:38;0.90;99.90
17726;DHT22;8983;53.156;17.960;2023-04-03T05:14:06;0.90;99.90
17726;DHT22;8983;53.156;17.960;2023-04-03T05:16:35;0.90;99.90
17726;DHT22;8983;53.156;17.960;2023-04-03T05:19:03;0.90;99.90
17726;DHT22;8983;53.156;17.960;2023-04-03T05:21:31;0.90;99.90
17726;DHT22;8983;53.156;17.960;2023-04-03T05:24:00;0.90;99.90
17726;DHT22;8983;53.156;17.960;2023-04-03T05:26:29;0.90;99.90
17726;DHT22;8983;53.156;17.960;2023-04-03T05:28:57;1.00;99.90
17726;DHT22;8983;53.156;17.960;2023-04-03T05:31:26;1.00;99.90
17726;DHT22;8983;53.156;17.960;2023-04-03T05:33:57;1.00;99.90
17726;DHT22;8983;53.156;17.960;2023-04-03T05:36:25;1.10;99.90
17726;DHT22;8983;53.156;17.960;2023-04-03T05:38:54;1.10;99.90
17726;DHT22;8983;53.156;17.960;2023-04-03T05:41:23;1.10;99.90
17726;DHT22;8983;53.156;17.960;2023-04-03T05:43:51;1.10;99.90
17726;DHT22;8983;53.156;17.960;2023-04-03T05:46:20;1.20;99.90
17726;DHT22;8983;53.156;17.960;2023-04-03T05:48:48;1.20;99.90
17726;DHT22;8983;53.156;17.960;2023-04-03T05:51:20;1.30;99.90
17726;DHT22;8983;53.156;17.960;2023-04-03T05:53:53;1.30;99.90
17726;DHT22;8983;53.156;17.960;2023-04-03T05:56:23;1.30;99.90
17726;DHT22;8983;53.156;17.960;2023-04-03T05:58:52;1.30;99.90
17726;DHT22;8983;53.156;17.960;2023-04-03T06:01:20;1.40;99.90
17726;DHT22;8983;53.156;17.960;2023-04-03T06:03:48;1.50;99.90
17726;DHT22;8983;53.156;17.960;2023-04-03T06:06:18;1.60;99.90
17726;DHT22;8983;53.156;17.960;2023-04-03T06:08:46;1.60;99.90
17726;DHT22;8983;53.156;17.960;2023-04-03T06:11:15;1.70;99.90
17726;DHT22;8983;53.156;17.960;2023-04-03T06:13:43;1.80;99.90
17726;DHT22;8983;53.156;17.960;2023-04-03T06:16:12;1.80;99.90
17726;DHT22;8983;53.156;17.960;2023-04-03T06:18:41;1.80;99.90
17726;DHT22;8983;53.156;17.960;2023-04-03T06:21:10;1.80;99.90
17726;DHT22;8983;53.156;17.960;2023-04-03T06:23:39;1.80;99.90
17726;DHT22;8983;53.156;17.960;2023-04-03T06:26:07;1.80;99.90
17726;DHT22;8983;53.156;17.960;2023-04-03T06:28:35;1.80;99.90
17726;DHT22;8983;53.156;17.960;2023-04-03T06:31:03;1.80;99.90
17726;DHT22;8983;53.156;17.960;2023-04-03T06:33:31;1.80;99.90
17726;DHT22;8983;53.156;17.960;2023-04-03T06:35:59;1.90;99.90
17726;DHT22;8983;53.156;17.960;2023-04-03T06:38:28;1.90;99.90
17726;DHT22;8983;53.156;17.960;2023-04-03T06:40:58;2.00;99.90
17726;DHT22;8983;53.156;17.960;2023-04-03T06:43:26;2.00;99.90
17726;DHT22;8983;53.156;17.960;2023-04-03T06:45:54;2.10;99.90
17726;DHT22;8983;53.156;17.960;2023-04-03T06:48:22;2.20;99.90
17726;DHT22;8983;53.156;17.960;2023-04-03T06:50:50;2.20;99.90
17726;DHT22;8983;53.156;17.960;2023-04-03T06:53:18;2.30;99.90
17726;DHT22;8983;53.156;17.960;2023-04-03T06:55:46;2.50;99.90
17726;DHT22;8983;53.156;17.960;2023-04-03T06:58:16;2.60;99.90
17726;DHT22;8983;53.156;17.960;2023-04-03T07:00:48;2.60;99.90
17726;DHT22;8983;53.156;17.960;2023-04-03T07:03:16;2.70;99.90
17726;DHT22;8983;53.156;17.960;2023-04-03T07:05:44;2.80;99.90
17726;DHT22;8983;53.156;17.960;2023-04-03T07:08:12;3.00;99.90
17726;DHT22;8983;53.156;17.960;2023-04-03T07:10:40;3.00;99.90
17726;DHT22;8983;53.156;17.960;2023-04-03T07:13:08;3.10;99.90
17726;DHT22;8983;53.156;17.960;2023-04-03T07:15:38;3.20;99.90
17726;DHT22;8983;53.156;17.960;2023-04-03T07:18:06;3.10;99.90
17726;DHT22;8983;53.156;17.960;2023-04-03T07:20:35;3.20;99.90
17726;DHT22;8983;53.156;17.960;2023-04-03T07:23:03;3.20;99.90
17726;DHT22;8983;53.156;17.960;2023-04-03T07:25:31;3.20;99.90
17726;DHT22;8983;53.156;17.960;2023-04-03T07:28:00;3.20;99.90
17726;DHT22;8983;53.156;17.960;2023-04-03T07:30:29;3.20;99.90
17726;DHT22;8983;53.156;17.960;2023-04-03T07:32:58;3.10;99.90
17726;DHT22;8983;53.156;17.960;2023-04-03T07:35:27;3.10;99.90
17726;DHT22;8983;53.156;17.960;2023-04-03T07:37:55;3.20;99.90
17726;DHT22;8983;53.156;17.960;2023-04-03T07:40:23;3.20;99.90
17726;DHT22;8983;53.156;17.960;2023-04-03T07:42:51;3.30;99.90
17726;DHT22;8983;53.156;17.960;2023-04-03T07:45:19;3.30;99.90
17726;DHT22;8983;53.156;17.960;2023-04-03T07:47:49;3.30;99.90
17726;DHT22;8983;53.156;17.960;2023-04-03T07:50:18;3.30;99.90
17726;DHT22;8983;53.156;17.960;2023-04-03T07:52:47;3.40;99.90
17726;DHT22;8983;53.156;17.960;2023-04-03T07:55:15;3.40;99.90
17726;DHT22;8983;53.156;17.960;2023-04-03T07:57:43;3.40;99.90
17726;DHT22;8983;53.156;17.960;2023-04-03T08:00:13;3.40;99.90
17726;DHT22;8983;53.156;17.960;2023-04-03T08:02:41;3.50;99.90
17726;DHT22;8983;53.156;17.960;2023-04-03T08:05:09;3.50;99.90
17726;DHT22;8983;53.156;17.960;2023-04-03T08:07:39;3.50;99.90
17726;DHT22;8983;53.156;17.960;2023-04-03T08:10:07;3.50;99.90
17726;DHT22;8983;53.156;17.960;2023-04-03T08:12:36;3.50;99.90
17726;DHT22;8983;53.156;17.960;2023-04-03T08:15:05;3.50;99.90
17726;DHT22;8983;53.156;17.960;2023-04-03T08:17:33;3.40;99.90
17726;DHT22;8983;53.156;17.960;2023-04-03T08:20:03;3.30;99.90
17726;DHT22;8983;53.156;17.960;2023-04-03T08:22:31;3.30;99.90
17726;DHT22;8983;53.156;17.960;2023-04-03T08:25:00;3.30;99.90
17726;DHT22;8983;53.156;17.960;2023-04-03T08:27:30;3.20;99.90
17726;DHT22;8983;53.156;17.960;2023-04-03T08:30:00;3.20;99.90
17726;DHT22;8983;53.156;17.960;2023-04-03T08:32:28;3.20;99.90
17726;DHT22;8983;53.156;17.960;2023-04-03T08:34:56;3.20;99.90
17726;DHT22;8983;53.156;17.960;2023-04-03T08:37:24;3.30;99.90
17726;DHT22;8983;53.156;17.960;2023-04-03T08:39:52;3.30;99.90
17726;DHT22;8983;53.156;17.960;2023-04-03T08:42:31;3.40;99.90
17726;DHT22;8983;53.156;17.960;2023-04-03T08:45:07;3.50;99.90
17726;DHT22;8983;53.156;17.960;2023-04-03T08:47:40;3.60;99.90
17726;DHT22;8983;53.156;17.960;2023-04-03T08:50:13;3.70;99.90
17726;DHT22;8983;53.156;17.960;2023-04-03T08:52:43;3.70;99.90
17726;DHT22;8983;53.156;17.960;2023-04-03T08:55:20;3.80;99.90
17726;DHT22;8983;53.156;17.960;2023-04-03T08:57:53;3.80;99.90
17726;DHT22;8983;53.156;17.960;2023-04-03T09:00:27;3.90;99.90
17726;DHT22;8983;53.156;17.960;2023-04-03T09:02:57;4.00;99.90
17726;DHT22;8983;53.156;17.960;2023-04-03T09:05:35;4.10;99.90
17726;DHT22;8983;53.156;17.960;2023-04-03T09:08:14;4.20;99.90
17726;DHT22;8983;53.156;17.960;2023-04-03T09:10:44;4.30;99.90
17726;DHT22;8983;53.156;17.960;2023-04-03T09:13:23;4.40;99.90
17726;DHT22;8983;53.156;17.960;2023-04-03T09:15:53;4.50;99.90
17726;DHT22;8983;53.156;17.960;2023-04-03T09:18:25;4.70;99.90
17726;DHT22;8983;53.156;17.960;2023-04-03T09:21:00;4.80;99.90
17726;DHT22;8983;53.156;17.960;2023-04-03T09:23:33;4.80;99.90
17726;DHT22;8983;53.156;17.960;2023-04-03T09:26:09;4.90;99.90
17726;DHT22;8983;53.156;17.960;2023-04-03T09:28:40;4.90;99.90
17726;DHT22;8983;53.156;17.960;2023-04-03T09:31:21;4.90;99.90
17726;DHT22;8983;53.156;17.960;2023-04-03T09:33:51;5.00;99.90
17726;DHT22;8983;53.156;17.960;2023-04-03T09:36:40;5.10;99.90
17726;DHT22;8983;53.156;17.960;2023-04-03T09:39:13;5.20;99.90
17726;DHT22;8983;53.156;17.960;2023-04-03T09:41:43;5.20;99.90
17726;DHT22;8983;53.156;17.960;2023-04-03T09:44:25;5.30;99.90
17726;DHT22;8983;53.156;17.960;2023-04-03T09:46:53;5.30;99.90
17726;DHT22;8983;53.156;17.960;2023-04-03T09:49:22;5.30;99.90
17726;DHT22;8983;53.156;17.960;2023-04-03T09:51:50;5.30;99.90
17726;DHT22;8983;53.156;17.960;2023-04-03T09:54:35;5.40;99.90
17726;DHT22;8983;53.156;17.960;2023-04-03T09:57:10;5.80;99.90
17726;DHT22;8983;53.156;17.960;2023-04-03T09:59:46;6.20;99.90
17726;DHT22;8983;53.156;17.960;2023-04-03T10:02:30;6.70;99.70
17726;DHT22;8983;53.156;17.960;2023-04-03T10:05:00;7.00;98.40
17726;DHT22;8983;53.156;17.960;2023-04-03T10:07:33;6.90;97.60
17726;DHT22;8983;53.156;17.960;2023-04-03T10:10:21;6.70;97.30
17726;DHT22;8983;53.156;17.960;2023-04-03T10:13:04;6.50;96.90
17726;DHT22;8983;53.156;17.960;2023-04-03T10:15:41;6.20;96.50
17726;DHT22;8983;53.156;17.960;2023-04-03T10:18:26;6.10;96.60
17726;DHT22;8983;53.156;17.960;2023-04-03T10:21:02;6.50;96.90
17726;DHT22;8983;53.156;17.960;2023-04-03T10:23:46;7.10;97.10
17726;DHT22;8983;53.156;17.960;2023-04-03T10:26:26;7.80;96.10
17726;DHT22;8983;53.156;17.960;2023-04-03T10:29:04;8.40;95.60
17726;DHT22;8983;53.156;17.960;2023-04-03T10:31:41;8.80;95.00
17726;DHT22;8983;53.156;17.960;2023-04-03T10:34:20;8.70;93.90
17726;DHT22;8983;53.156;17.960;2023-04-03T10:36:53;8.70;93.50
17726;DHT22;8983;53.156;17.960;2023-04-03T10:39:30;9.00;92.70
17726;DHT22;8983;53.156;17.960;2023-04-03T10:42:08;9.20;92.50
17726;DHT22;8983;53.156;17.960;2023-04-03T10:45:00;9.60;92.40
17726;DHT22;8983;53.156;17.960;2023-04-03T10:47:36;10.00;91.40
17726;DHT22;8983;53.156;17.960;2023-04-03T10:50:22;10.00;90.80
17726;DHT22;8983;53.156;17.960;2023-04-03T10:52:56;9.80;90.50
17726;DHT22;8983;53.156;17.960;2023-04-03T10:55:34;9.90;90.00
17726;DHT22;8983;53.156;17.960;2023-04-03T10:58:04;10.30;89.50
17726;DHT22;8983;53.156;17.960;2023-04-03T11:00:37;10.60;89.10
17726;DHT22;8983;53.156;17.960;2023-04-03T11:03:12;10.70;86.70
17726;DHT22;8983;53.156;17.960;2023-04-03T11:05:44;10.40;84.40
17726;DHT22;8983;53.156;17.960;2023-04-03T11:08:23;9.80;84.10
17726;DHT22;8983;53.156;17.960;2023-04-03T11:10:57;9.50;84.30
17726;DHT22;8983;53.156;17.960;2023-04-03T11:13:30;9.10;84.10
17726;DHT22;8983;53.156;17.960;2023-04-03T11:16:00;8.90;83.60
17726;DHT22;8983;53.156;17.960;2023-04-03T11:18:37;8.60;83.10
17726;DHT22;8983;53.156;17.960;2023-04-03T11:21:07;8.70;83.30
17726;DHT22;8983;53.156;17.960;2023-04-03T11:23:39;9.10;82.50
17726;DHT22;8983;53.156;17.960;2023-04-03T11:26:18;9.70;81.80
17726;DHT22;8983;53.156;17.960;2023-04-03T11:28:52;10.40;81.00
17726;DHT22;8983;53.156;17.960;2023-04-03T11:31:29;11.00;80.00
17726;DHT22;8983;53.156;17.960;2023-04-03T11:34:08;11.50;78.60
17726;DHT22;8983;53.156;17.960;2023-04-03T11:36:45;11.90;77.00
17726;DHT22;8983;53.156;17.960;2023-04-03T11:39:21;11.80;74.80
17726;DHT22;8983;53.156;17.960;2023-04-03T11:41:51;11.30;74.00
17726;DHT22;8983;53.156;17.960;2023-04-03T11:44:38;11.10;74.80
17726;DHT22;8983;53.156;17.960;2023-04-03T11:47:09;11.50;74.80
17726;DHT22;8983;53.156;17.960;2023-04-03T11:50:02;11.40;73.90
17726;DHT22;8983;53.156;17.960;2023-04-03T11:52:59;11.10;73.30
17726;DHT22;8983;53.156;17.960;2023-04-03T11:56:27;10.60;73.60
17726;DHT22;8983;53.156;17.960;2023-04-03T11:59:22;10.20;74.00
17726;DHT22;8983;53.156;17.960;2023-04-03T12:01:52;10.00;74.40
17726;DHT22;8983;53.156;17.960;2023-04-03T12:04:22;10.10;75.10
17726;DHT22;8983;53.156;17.960;2023-04-03T12:10:02;10.20;74.00
17726;DHT22;8983;53.156;17.960;2023-04-03T12:12:36;9.90;73.30
17726;DHT22;8983;53.156;17.960;2023-04-03T12:15:41;9.70;73.10
17726;DHT22;8983;53.156;17.960;2023-04-03T12:21:18;9.70;73.30
17726;DHT22;8983;53.156;17.960;2023-04-03T12:24:16;9.80;73.00
17726;DHT22;8983;53.156;17.960;2023-04-03T12:27:02;9.70;72.20
17726;DHT22;8983;53.156;17.960;2023-04-03T12:29:35;9.70;72.40
17726;DHT22;8983;53.156;17.960;2023-04-03T12:32:22;10.00;72.50
17726;DHT22;8983;53.156;17.960;2023-04-03T12:35:10;10.70;72.20
17726;DHT22;8983;53.156;17.960;2023-04-03T12:37:54;10.90;70.60
17726;DHT22;8983;53.156;17.960;2023-04-03T12:40:31;10.60;70.30
17726;DHT22;8983;53.156;17.960;2023-04-03T12:43:28;10.30;70.80
17726;DHT22;8983;53.156;17.960;2023-04-03T12:46:03;10.00;71.10
17726;DHT22;8983;53.156;17.960;2023-04-03T12:48:38;9.60;70.90
17726;DHT22;8983;53.156;17.960;2023-04-03T12:51:07;9.50;71.00
17726;DHT22;8983;53.156;17.960;2023-04-03T12:53:36;9.50;71.10
17726;DHT22;8983;53.156;17.960;2023-04-03T12:56:24;9.80;71.80
17726;DHT22;8983;53.156;17.960;2023-04-03T12:58:54;10.50;71.40
17726;DHT22;8983;53.156;17.960;2023-04-03T13:01:25;10.80;70.30
17726;DHT22;8983;53.156;17.960;2023-04-03T13:03:55;10.70;69.70
17726;DHT22;8983;53.156;17.960;2023-04-03T13:06:27;10.50;69.40
17726;DHT22;8983;53.156;17.960;2023-04-03T13:08:57;10.20;69.10
17726;DHT22;8983;53.156;17.960;2023-04-03T13:11:30;10.00;69.20
17726;DHT22;8983;53.156;17.960;2023-04-03T13:14:02;9.70;69.10
17726;DHT22;8983;53.156;17.960;2023-04-03T13:16:32;9.60;69.40
17726;DHT22;8983;53.156;17.960;2023-04-03T13:19:01;9.90;70.00
17726;DHT22;8983;53.156;17.960;2023-04-03T13:21:31;10.40;69.70
17726;DHT22;8983;53.156;17.960;2023-04-03T13:24:01;10.40;68.80
17726;DHT22;8983;53.156;17.960;2023-04-03T13:26:43;10.20;68.50
17726;DHT22;8983;53.156;17.960;2023-04-03T13:29:21;10.10;68.70
17726;DHT22;8983;53.156;17.960;2023-04-03T13:31:59;10.30;69.10
17726;DHT22;8983;53.156;17.960;2023-04-03T13:34:29;10.50;68.80
17726;DHT22;8983;53.156;17.960;2023-04-03T13:37:03;10.50;68.10
17726;DHT22;8983;53.156;17.960;2023-04-03T13:39:33;10.30;67.70
17726;DHT22;8983;53.156;17.960;2023-04-03T13:42:16;10.10;67.70
17726;DHT22;8983;53.156;17.960;2023-04-03T13:45:20;9.90;67.60
17726;DHT22;8983;53.156;17.960;2023-04-03T13:47:52;9.80;67.30
17726;DHT22;8983;53.156;17.960;2023-04-03T13:50:23;9.70;67.20
17726;DHT22;8983;53.156;17.960;2023-04-03T13:52:53;9.70;67.20
17726;DHT22;8983;53.156;17.960;2023-04-03T13:55:24;9.40;67.50
17726;DHT22;8983;53.156;17.960;2023-04-03T13:57:58;9.40;68.00
17726;DHT22;8983;53.156;17.960;2023-04-03T14:00:34;9.20;68.40
17726;DHT22;8983;53.156;17.960;2023-04-03T14:03:12;9.00;68.90
17726;DHT22;8983;53.156;17.960;2023-04-03T14:05:40;8.90;69.50
17726;DHT22;8983;53.156;17.960;2023-04-03T14:08:08;8.70;69.90
17726;DHT22;8983;53.156;17.960;2023-04-03T14:10:37;8.80;70.60
17726;DHT22;8983;53.156;17.960;2023-04-03T14:13:08;9.30;71.10
17726;DHT22;8983;53.156;17.960;2023-04-03T14:15:37;9.90;71.10
17726;DHT22;8983;53.156;17.960;2023-04-03T14:18:05;10.40;70.20
17726;DHT22;8983;53.156;17.960;2023-04-03T14:20:33;10.50;69.30
17726;DHT22;8983;53.156;17.960;2023-04-03T14:23:02;10.30;69.10
17726;DHT22;8983;53.156;17.960;2023-04-03T14:25:30;10.10;69.70
17726;DHT22;8983;53.156;17.960;2023-04-03T14:27:58;9.80;70.00
17726;DHT22;8983;53.156;17.960;2023-04-03T14:30:30;9.60;70.40
17726;DHT22;8983;53.156;17.960;2023-04-03T14:32:59;9.40;71.00
17726;DHT22;8983;53.156;17.960;2023-04-03T14:35:28;9.10;71.40
17726;DHT22;8983;53.156;17.960;2023-04-03T14:37:56;8.80;72.00
17726;DHT22;8983;53.156;17.960;2023-04-03T14:40:26;8.70;72.80
17726;DHT22;8983;53.156;17.960;2023-04-03T14:42:54;8.60;73.50
17726;DHT22;8983;53.156;17.960;2023-04-03T14:45:24;8.50;73.40
17726;DHT22;8983;53.156;17.960;2023-04-03T14:47:55;8.30;73.30
17726;DHT22;8983;53.156;17.960;2023-04-03T14:50:26;8.20;73.40
17726;DHT22;8983;53.156;17.960;2023-04-03T14:52:56;8.20;73.60
17726;DHT22;8983;53.156;17.960;2023-04-03T14:55:25;8.40;74.00
17726;DHT22;8983;53.156;17.960;2023-04-03T14:57:54;8.90;74.50
17726;DHT22;8983;53.156;17.960;2023-04-03T15:00:22;9.60;74.50
17726;DHT22;8983;53.156;17.960;2023-04-03T15:02:51;10.20;73.40
17726;DHT22;8983;53.156;17.960;2023-04-03T15:05:21;10.30;72.10
17726;DHT22;8983;53.156;17.960;2023-04-03T15:07:52;10.10;71.80
17726;DHT22;8983;53.156;17.960;2023-04-03T15:10:23;9.80;72.10
17726;DHT22;8983;53.156;17.960;2023-04-03T15:12:53;9.60;72.40
17726;DHT22;8983;53.156;17.960;2023-04-03T15:15:23;9.40;72.30
17726;DHT22;8983;53.156;17.960;2023-04-03T15:17:52;9.10;72.30
17726;DHT22;8983;53.156;17.960;2023-04-03T15:20:24;8.90;72.40
17726;DHT22;8983;53.156;17.960;2023-04-03T15:22:54;8.70;72.30
17726;DHT22;8983;53.156;17.960;2023-04-03T15:25:23;8.50;72.40
17726;DHT22;8983;53.156;17.960;2023-04-03T15:27:52;8.60;72.80
17726;DHT22;8983;53.156;17.960;2023-04-03T15:30:21;9.10;73.10
17726;DHT22;8983;53.156;17.960;2023-04-03T15:32:50;9.60;72.80
17726;DHT22;8983;53.156;17.960;2023-04-03T15:35:20;10.10;72.10
17726;DHT22;8983;53.156;17.960;2023-04-03T15:37:49;10.60;71.40
17726;DHT22;8983;53.156;17.960;2023-04-03T15:40:18;11.00;71.00
17726;DHT22;8983;53.156;17.960;2023-04-03T15:42:46;11.30;70.30
17726;DHT22;8983;53.156;17.960;2023-04-03T15:45:14;11.10;69.20
17726;DHT22;8983;53.156;17.960;2023-04-03T15:47:42;10.70;68.80
17726;DHT22;8983;53.156;17.960;2023-04-03T15:50:10;10.30;68.90
17726;DHT22;8983;53.156;17.960;2023-04-03T15:52:39;9.90;69.00
17726;DHT22;8983;53.156;17.960;2023-04-03T15:55:09;10.00;69.40
17726;DHT22;8983;53.156;17.960;2023-04-03T15:57:37;10.10;69.30
17726;DHT22;8983;53.156;17.960;2023-04-03T16:00:07;10.10;68.70
17726;DHT22;8983;53.156;17.960;2023-04-03T16:02:35;9.70;68.00
17726;DHT22;8983;53.156;17.960;2023-04-03T16:05:04;9.30;68.10
17726;DHT22;8983;53.156;17.960;2023-04-03T16:07:32;9.10;68.30
17726;DHT22;8983;53.156;17.960;2023-04-03T16:10:00;8.70;68.50
17726;DHT22;8983;53.156;17.960;2023-04-03T16:12:30;8.40;68.60
17726;DHT22;8983;53.156;17.960;2023-04-03T16:14:58;8.20;68.80
17726;DHT22;8983;53.156;17.960;2023-04-03T16:17:26;8.00;69.10